createdAt,value
2018-11-02T00:02:23.868Z,5.10
2018-11-02T00:04:53.954Z,4.80
2018-11-02T00:07:24.072Z,4.80
2018-11-02T00:09:54.158Z,3.40
2018-11-02T00:12:24.409Z,4.10
2018-11-02T00:14:54.415Z,4.13
2018-11-02T00:17:28.822Z,4.50
2018-11-02T00:19:58.990Z,4.93
2018-11-02T00:22:29.081Z,4.50
2018-11-02T00:24:59.281Z,5.00
2018-11-02T00:27:29.453Z,4.83
2018-11-02T00:29:59.577Z,5.13
2018-11-02T00:32:29.730Z,4.80
2018-11-02T00:34:59.992Z,4.20
2018-11-02T00:37:30.181Z,4.17
2018-11-02T00:40:00.336Z,3.90
2018-11-02T00:42:30.650Z,3.63
2018-11-02T00:45:00.812Z,3.73
2018-11-02T00:47:31.099Z,3.90
2018-11-02T00:50:01.440Z,4.40
2018-11-02T00:52:31.643Z,4.40
2018-11-02T00:55:01.822Z,3.80
2018-11-02T00:57:31.980Z,5.87
2018-11-02T01:00:02.233Z,5.80
2018-11-02T01:02:32.401Z,4.90
2018-11-02T01:05:02.602Z,6.07
2018-11-02T01:07:32.773Z,5.53
2018-11-02T01:10:03.027Z,4.40
2018-11-02T01:12:33.167Z,4.10
2018-11-02T01:15:03.272Z,3.77
2018-11-02T01:17:33.415Z,3.70
2018-11-02T01:20:03.744Z,3.77
2018-11-02T01:22:33.863Z,3.63
2018-11-02T01:25:04.169Z,3.20
2018-11-02T01:27:34.309Z,2.83
2018-11-02T01:30:04.715Z,3.40
2018-11-02T01:32:35.020Z,3.23
2018-11-02T01:35:05.609Z,3.23
2018-11-02T01:37:35.733Z,2.60
2018-11-02T01:40:06.996Z,2.57
2018-11-02T01:42:37.205Z,2.70
2018-11-02T01:45:07.341Z,2.40
2018-11-02T01:47:37.553Z,2.70
2018-11-02T01:50:08.245Z,3.23
2018-11-02T01:52:38.401Z,2.97
2018-11-02T01:55:09.127Z,2.13
2018-11-02T01:57:39.319Z,2.30
2018-11-02T02:00:10.059Z,3.07
2018-11-02T02:02:40.276Z,4.03
2018-11-02T02:05:10.439Z,2.83
2018-11-02T02:07:40.709Z,2.90
2018-11-02T02:10:10.999Z,2.60
2018-11-02T02:12:41.102Z,2.37
2018-11-02T02:15:11.863Z,3.40
2018-11-02T02:17:41.996Z,3.00
2018-11-02T02:20:12.155Z,2.90
2018-11-02T02:22:42.287Z,2.50
2018-11-02T02:25:12.521Z,3.20
2018-11-02T02:27:42.680Z,2.20
2018-11-02T02:30:14.355Z,2.20
2018-11-02T02:32:44.507Z,2.80
2018-11-02T02:35:14.599Z,2.13
2018-11-02T02:37:46.891Z,2.70
2018-11-02T02:40:17.035Z,2.60
2018-11-02T02:42:47.119Z,3.07
2018-11-02T02:45:17.262Z,2.70
2018-11-02T02:47:47.397Z,2.50
2018-11-02T02:50:17.574Z,3.30
2018-11-02T02:52:47.723Z,3.40
2018-11-02T02:55:17.942Z,2.60
2018-11-02T02:57:48.121Z,3.67
2018-11-02T03:00:18.238Z,3.53
2018-11-02T03:02:48.357Z,3.67
2018-11-02T03:05:18.445Z,3.13
2018-11-02T03:07:48.617Z,3.80
2018-11-02T03:10:18.807Z,3.90
2018-11-02T03:12:48.869Z,4.27
2018-11-02T03:15:19.125Z,3.77
2018-11-02T03:17:49.192Z,4.97
2018-11-02T03:20:19.337Z,4.90
2018-11-02T03:22:49.432Z,4.70
2018-11-02T03:25:19.602Z,4.87
2018-11-02T03:27:49.693Z,4.93
2018-11-02T03:30:19.799Z,5.70
2018-11-02T03:32:49.909Z,5.80
2018-11-02T03:35:20.024Z,6.10
2018-11-02T03:37:50.285Z,6.03
2018-11-02T03:40:20.402Z,7.13
2018-11-02T03:42:50.591Z,6.20
2018-11-02T03:45:20.809Z,7.37
2018-11-02T03:47:50.977Z,6.97
2018-11-02T03:50:21.365Z,7.10
2018-11-02T03:52:51.516Z,6.97
2018-11-02T03:55:21.654Z,8.87
2018-11-02T03:57:51.838Z,8.53
2018-11-02T04:00:21.941Z,10.53
2018-11-02T04:02:52.088Z,8.83
2018-11-02T04:05:22.228Z,8.43
2018-11-02T04:07:52.407Z,8.80
2018-11-02T04:10:22.543Z,9.10
2018-11-02T04:12:52.663Z,9.47
2018-11-02T04:15:22.828Z,9.97
2018-11-02T04:17:52.944Z,11.27
2018-11-02T04:20:23.120Z,10.20
2018-11-02T04:22:53.245Z,11.47
2018-11-02T04:25:23.440Z,12.60
2018-11-02T04:27:53.626Z,11.70
2018-11-02T04:30:23.860Z,11.63
2018-11-02T04:36:03.530Z,11.70
2018-11-02T04:38:33.680Z,13.33
2018-11-02T04:41:03.916Z,12.70
2018-11-02T04:43:34.013Z,13.40
2018-11-02T04:46:04.162Z,13.50
2018-11-02T04:48:34.297Z,13.60
2018-11-02T04:51:04.466Z,12.50
2018-11-02T04:53:34.503Z,13.00
2018-11-02T04:56:04.725Z,15.07
2018-11-02T04:58:34.844Z,13.63
2018-11-02T05:01:05.117Z,14.47
2018-11-02T05:03:35.198Z,15.07
2018-11-02T05:06:05.406Z,14.43
2018-11-02T05:08:35.564Z,16.03
2018-11-02T05:11:06.314Z,17.00
2018-11-02T05:13:36.444Z,17.60
2018-11-02T05:16:06.808Z,16.50
2018-11-02T05:18:37.167Z,17.27
2018-11-02T05:21:08.683Z,17.33
2018-11-02T05:23:39.270Z,16.20
2018-11-02T05:26:09.438Z,18.00
2018-11-02T05:28:39.597Z,17.90
2018-11-02T05:31:09.746Z,15.87
2018-11-02T05:33:39.763Z,18.33
2018-11-02T05:36:09.944Z,16.40
2018-11-02T05:38:40.051Z,19.57
2018-11-02T05:41:10.184Z,18.60
2018-11-02T05:43:40.307Z,18.30
2018-11-02T05:46:10.453Z,19.23
2018-11-02T05:48:40.543Z,19.03
2018-11-02T05:51:10.657Z,16.07
2018-11-02T05:53:40.819Z,17.73
2018-11-02T05:56:11.008Z,17.73
2018-11-02T05:58:41.687Z,17.83
2018-11-02T06:01:12.797Z,18.50
2018-11-02T06:03:43.708Z,19.37
2018-11-02T06:06:13.827Z,16.50
2018-11-02T06:08:44.353Z,19.37
2018-11-02T06:11:14.496Z,18.53
2018-11-02T06:13:44.686Z,18.13
2018-11-02T06:16:14.952Z,16.03
2018-11-02T06:18:45.580Z,16.77
2018-11-02T06:21:15.804Z,16.07
2018-11-02T06:23:45.912Z,16.63
2018-11-02T06:26:16.020Z,16.40
2018-11-02T06:28:46.104Z,16.20
2018-11-02T06:31:16.227Z,14.53
2018-11-02T06:33:46.390Z,15.00
2018-11-02T06:36:16.477Z,14.80
2018-11-02T06:38:46.782Z,16.60
2018-11-02T06:41:16.847Z,16.73
2018-11-02T06:43:47.050Z,16.97
2018-11-02T06:46:17.182Z,16.13
2018-11-02T06:48:47.322Z,17.53
2018-11-02T06:51:17.540Z,16.87
2018-11-02T06:53:47.718Z,17.30
2018-11-02T06:56:18.650Z,17.50
2018-11-02T06:58:48.823Z,17.00
2018-11-02T07:01:19.054Z,16.37
2018-11-02T07:03:49.197Z,17.50
2018-11-02T07:06:19.320Z,17.90
2018-11-02T07:08:49.497Z,19.20
2018-11-02T07:11:19.743Z,16.43
2018-11-02T07:13:51.492Z,17.83
2018-11-02T07:16:21.623Z,18.37
2018-11-02T07:18:52.003Z,16.13
2018-11-02T07:21:22.308Z,17.80
2018-11-02T07:23:52.472Z,19.80
2018-11-02T07:26:22.726Z,18.40
2018-11-02T07:28:52.864Z,19.80
2018-11-02T07:31:23.598Z,18.07
2018-11-02T07:33:53.700Z,16.80
2018-11-02T07:36:24.028Z,16.53
2018-11-02T07:38:54.230Z,18.33
2018-11-02T07:41:24.372Z,17.50
2018-11-02T07:43:54.507Z,16.13
2018-11-02T07:46:24.607Z,14.80
2018-11-02T07:48:54.741Z,16.40
2018-11-02T07:51:24.833Z,17.53
2018-11-02T07:53:55.096Z,17.67
2018-11-02T07:56:25.319Z,17.60
2018-11-02T07:58:55.485Z,16.73
2018-11-02T08:01:25.839Z,18.00
2018-11-02T08:03:56.036Z,17.30
2018-11-02T08:06:26.251Z,16.50
2018-11-02T08:08:56.433Z,16.13
2018-11-02T08:11:26.616Z,16.00
2018-11-02T08:13:56.762Z,15.80
2018-11-02T08:16:27.005Z,17.13
2018-11-02T08:18:57.237Z,16.00
2018-11-02T08:21:27.373Z,17.13
2018-11-02T08:23:57.535Z,18.23
2018-11-02T08:26:27.707Z,18.13
2018-11-02T08:28:57.939Z,18.00
2018-11-02T08:31:28.113Z,19.20
2018-11-02T08:33:58.249Z,18.00
2018-11-02T08:36:28.359Z,17.87
2018-11-02T08:38:58.481Z,16.47
2018-11-02T08:41:28.628Z,16.63
2018-11-02T08:43:58.741Z,19.70
2018-11-02T08:46:29.075Z,19.63
2018-11-02T08:48:59.191Z,18.73
2018-11-02T08:51:29.356Z,17.50
2018-11-02T08:53:59.511Z,16.60
2018-11-02T08:56:29.630Z,17.23
2018-11-02T08:58:59.864Z,17.20
2018-11-02T09:01:29.868Z,15.73
2018-11-02T09:03:59.905Z,18.17
2018-11-02T09:06:29.995Z,17.53
2018-11-02T09:09:00.070Z,17.30
2018-11-02T09:11:30.199Z,17.97
2018-11-02T09:14:00.291Z,16.67
2018-11-02T09:16:30.433Z,16.07
2018-11-02T09:19:00.690Z,18.10
2018-11-02T09:21:31.064Z,17.77
2018-11-02T09:24:01.030Z,16.67
2018-11-02T09:26:31.175Z,15.30
2018-11-02T09:29:01.347Z,17.20
2018-11-02T09:31:31.452Z,18.17
2018-11-02T09:34:01.571Z,15.40
2018-11-02T09:36:31.770Z,16.47
2018-11-02T09:39:01.903Z,16.43
2018-11-02T09:41:32.132Z,17.57
2018-11-02T09:44:02.274Z,17.50
2018-11-02T09:46:32.451Z,17.23
2018-11-02T09:49:02.642Z,19.43
2018-11-02T09:51:32.942Z,17.00
2018-11-02T09:54:02.997Z,17.17
2018-11-02T09:56:33.243Z,18.70
2018-11-02T09:59:03.359Z,16.70
2018-11-02T10:01:33.558Z,16.07
2018-11-02T10:04:03.720Z,14.60
2018-11-02T10:06:33.945Z,14.37
2018-11-02T10:09:04.798Z,14.73
2018-11-02T10:11:35.028Z,15.10
2018-11-02T10:14:05.231Z,15.80
2018-11-02T10:16:35.411Z,16.40
2018-11-02T10:19:06.153Z,15.80
2018-11-02T10:21:36.411Z,14.90
2018-11-02T10:24:07.652Z,14.40
2018-11-02T10:26:38.045Z,15.30
2018-11-02T10:29:08.363Z,13.50
2018-11-02T10:31:38.699Z,13.90
2018-11-02T10:34:12.020Z,12.90
2018-11-02T10:36:43.146Z,16.40
2018-11-02T10:39:15.168Z,15.43
2018-11-02T10:41:56.201Z,17.07
2018-11-02T10:44:58.256Z,15.40
2018-11-02T10:47:28.937Z,17.50
2018-11-02T10:49:59.126Z,18.20
2018-11-02T10:52:29.419Z,18.00
2018-11-02T10:54:59.620Z,17.07
2018-11-02T10:57:30.123Z,19.37
2018-11-02T11:00:00.476Z,19.00
2018-11-02T11:02:36.028Z,17.73
2018-11-02T11:05:08.404Z,15.93
2018-11-02T11:07:38.877Z,18.80
2018-11-02T11:10:11.290Z,18.27
2018-11-02T11:12:42.416Z,17.90
2018-11-02T11:15:13.200Z,17.60
2018-11-02T11:17:43.406Z,15.87
2018-11-02T11:20:14.894Z,14.53
2018-11-02T11:22:45.134Z,16.07
2018-11-02T11:25:16.786Z,16.10
2018-11-02T11:27:46.953Z,16.57
2018-11-02T11:30:18.875Z,15.80
2018-11-02T11:32:51.452Z,13.80
2018-11-02T11:35:21.985Z,14.33
2018-11-02T11:37:52.481Z,14.00
2018-11-02T11:40:22.973Z,14.80
2018-11-02T11:42:53.810Z,12.17
2018-11-02T11:45:24.061Z,12.60
2018-11-02T11:47:54.654Z,11.70
2018-11-02T11:50:25.437Z,11.93
2018-11-02T11:52:56.375Z,13.57
2018-11-02T11:55:26.606Z,13.37
2018-11-02T11:57:56.837Z,12.63
2018-11-02T12:00:27.172Z,11.60
2018-11-02T12:02:57.370Z,12.73
2018-11-02T12:05:27.649Z,11.73
2018-11-02T12:07:57.881Z,11.90
2018-11-02T12:10:28.145Z,12.87
2018-11-02T12:12:58.395Z,11.77
2018-11-02T12:15:28.592Z,11.20
2018-11-02T12:17:58.789Z,12.57
2018-11-02T12:20:30.575Z,11.83
2018-11-02T12:23:03.003Z,10.83
2018-11-02T12:25:33.146Z,9.80
2018-11-02T12:28:03.386Z,9.00
2018-11-02T12:30:33.793Z,6.53
2018-11-02T12:33:03.996Z,4.90
2018-11-02T12:35:34.133Z,6.07
2018-11-02T12:38:04.326Z,3.63
2018-11-02T12:40:34.472Z,4.07
2018-11-02T12:43:04.580Z,3.80
2018-11-02T12:45:34.824Z,4.00
2018-11-02T12:48:05.091Z,3.93
2018-11-02T12:50:35.212Z,4.23
2018-11-02T12:53:05.522Z,4.70
2018-11-02T12:55:35.718Z,4.00
2018-11-02T12:58:06.004Z,5.73
2018-11-02T13:00:36.136Z,4.83
2018-11-02T13:03:06.613Z,5.13
2018-11-02T13:05:36.763Z,3.40
2018-11-02T13:08:07.010Z,3.60
2018-11-02T13:10:37.179Z,3.57
2018-11-02T13:13:07.527Z,3.83
2018-11-02T13:15:37.643Z,3.10
2018-11-02T13:18:08.068Z,3.40
2018-11-02T13:20:38.144Z,3.90
2018-11-02T13:23:08.336Z,3.60
2018-11-02T13:25:39.239Z,2.93
2018-11-02T13:28:09.467Z,2.80
2018-11-02T13:30:41.244Z,3.00
2018-11-02T13:33:11.336Z,3.50
2018-11-02T13:35:41.501Z,2.97
2018-11-02T13:38:11.679Z,3.50
2018-11-02T13:40:41.824Z,3.10
2018-11-02T13:43:12.093Z,3.13
2018-11-02T13:45:42.181Z,2.43
2018-11-02T13:48:12.368Z,2.03
2018-11-02T13:50:42.595Z,2.03
2018-11-02T13:53:12.723Z,2.40
2018-11-02T13:55:42.820Z,2.40
2018-11-02T13:58:13.019Z,2.20
2018-11-02T14:00:43.113Z,2.30
2018-11-02T14:03:13.215Z,2.00
2018-11-02T14:05:43.430Z,1.77
2018-11-02T14:08:13.679Z,1.87
2018-11-02T14:10:43.792Z,2.17
2018-11-02T14:13:13.925Z,2.00
2018-11-02T14:15:44.030Z,2.10
2018-11-02T14:18:14.216Z,1.80
2018-11-02T14:20:44.294Z,2.10
2018-11-02T14:23:14.498Z,1.87
2018-11-02T14:25:44.612Z,1.90
2018-11-02T14:28:14.782Z,1.70
2018-11-02T14:30:44.883Z,1.70
2018-11-02T14:33:15.056Z,1.80
2018-11-02T14:35:45.209Z,2.23
2018-11-02T14:38:15.331Z,2.10
2018-11-02T14:40:45.371Z,2.30
2018-11-02T14:43:15.471Z,2.20
2018-11-02T14:45:45.634Z,1.70
2018-11-02T14:48:15.786Z,2.17
2018-11-02T14:50:46.005Z,2.60
2018-11-02T14:53:16.267Z,1.70
2018-11-02T14:55:46.411Z,2.13
2018-11-02T14:58:16.505Z,2.13
2018-11-02T15:00:46.741Z,1.97
2018-11-02T15:03:16.855Z,1.90
2018-11-02T15:05:46.968Z,2.30
2018-11-02T15:08:17.168Z,2.30
2018-11-02T15:10:47.351Z,2.97
2018-11-02T15:13:17.628Z,2.30
2018-11-02T15:15:47.702Z,2.30
2018-11-02T15:18:17.911Z,2.60
2018-11-02T15:20:48.048Z,2.40
2018-11-02T15:23:18.203Z,2.87
2018-11-02T15:25:48.328Z,2.80
2018-11-02T15:28:18.512Z,2.90
2018-11-02T15:30:48.630Z,3.57
2018-11-02T15:33:18.774Z,3.70
2018-11-02T15:35:48.911Z,5.03
2018-11-02T15:38:19.041Z,3.43
2018-11-02T15:40:49.160Z,2.90
2018-11-02T15:43:19.343Z,3.53
2018-11-02T15:45:49.468Z,3.17
2018-11-02T15:48:19.601Z,3.03
2018-11-02T15:50:49.746Z,3.03
2018-11-02T15:53:19.937Z,3.60
2018-11-02T15:55:50.040Z,2.87
2018-11-02T15:58:20.180Z,3.17
2018-11-02T16:00:50.308Z,3.37
2018-11-02T16:03:20.432Z,3.30
2018-11-02T16:05:50.545Z,3.93
2018-11-02T16:08:20.672Z,3.40
2018-11-02T16:10:50.818Z,3.67
2018-11-02T16:13:20.915Z,3.40
2018-11-02T16:15:50.959Z,4.30
2018-11-02T16:18:21.158Z,4.47
2018-11-02T16:20:51.328Z,4.13
2018-11-02T16:23:21.529Z,4.07
2018-11-02T16:25:51.680Z,3.73
2018-11-02T16:28:21.927Z,4.70
2018-11-02T16:30:51.990Z,5.27
2018-11-02T16:33:22.194Z,4.87
2018-11-02T16:35:52.479Z,4.40
2018-11-02T16:38:22.673Z,4.50
2018-11-02T16:40:53.003Z,6.00
2018-11-02T16:43:23.243Z,5.57
2018-11-02T16:45:53.303Z,5.57
2018-11-02T16:48:24.754Z,4.90
2018-11-02T16:50:54.974Z,5.90
2018-11-02T16:53:25.159Z,6.40
2018-11-02T16:55:56.670Z,7.20
2018-11-02T16:58:27.032Z,6.90
2018-11-02T17:00:57.258Z,6.20
2018-11-02T17:03:27.394Z,7.20
2018-11-02T17:05:57.869Z,6.60
2018-11-02T17:08:27.912Z,5.40
2018-11-02T17:11:01.016Z,6.00
2018-11-02T17:13:31.231Z,7.00
2018-11-02T17:16:01.353Z,6.50
2018-11-02T17:18:31.615Z,7.37
2018-11-02T17:21:01.765Z,7.67
2018-11-02T17:23:31.912Z,7.30
2018-11-02T17:26:02.061Z,8.70
2018-11-02T17:28:32.506Z,7.43
2018-11-02T17:31:02.652Z,7.37
2018-11-02T17:33:32.822Z,7.43
2018-11-02T17:36:03.067Z,8.33
2018-11-02T17:38:33.276Z,8.73
2018-11-02T17:41:03.529Z,8.43
2018-11-02T17:43:33.728Z,9.20
2018-11-02T17:46:03.830Z,7.03
2018-11-02T17:48:34.085Z,7.33
2018-11-02T17:51:04.291Z,8.37
2018-11-02T17:53:34.642Z,8.00
2018-11-02T17:56:04.903Z,7.43
2018-11-02T17:58:35.097Z,8.93
2018-11-02T18:01:05.300Z,8.07
2018-11-02T18:03:42.045Z,9.13
2018-11-02T18:06:12.825Z,7.70
2018-11-02T18:08:42.930Z,7.53
2018-11-02T18:11:19.544Z,8.33
2018-11-02T18:13:49.875Z,8.20
2018-11-02T18:16:20.120Z,8.30
2018-11-02T18:18:50.455Z,8.00
2018-11-02T18:21:20.555Z,8.37
2018-11-02T18:23:50.764Z,8.33
2018-11-02T18:26:21.010Z,8.33
2018-11-02T18:28:51.347Z,8.30
2018-11-02T18:31:21.460Z,8.00
2018-11-02T18:33:51.655Z,7.90
2018-11-02T18:36:21.989Z,7.27
2018-11-02T18:38:52.104Z,8.10
2018-11-02T18:41:22.407Z,7.80
2018-11-02T18:43:53.222Z,9.23
2018-11-02T18:46:23.517Z,8.60
2018-11-02T18:48:53.767Z,8.87
2018-11-02T18:51:24.015Z,8.90
2018-11-02T18:53:54.233Z,8.00
2018-11-02T18:56:24.392Z,8.70
2018-11-02T18:58:55.617Z,10.47
2018-11-02T19:01:26.092Z,9.90
2018-11-02T19:03:56.433Z,10.50
2018-11-02T19:06:26.696Z,10.03
2018-11-02T19:08:56.897Z,10.27
2018-11-02T19:11:27.163Z,10.57
2018-11-02T19:13:57.402Z,11.17
2018-11-02T19:16:27.504Z,10.37
2018-11-02T19:18:57.809Z,10.23
2018-11-02T19:21:28.039Z,11.40
2018-11-02T19:23:58.223Z,11.87
2018-11-02T19:26:28.331Z,13.10
2018-11-02T19:28:58.567Z,13.03
2018-11-02T19:31:31.294Z,11.00
2018-11-02T19:34:02.247Z,11.77
2018-11-02T19:36:33.568Z,11.93
2018-11-02T19:39:04.394Z,11.57
2018-11-02T19:41:35.209Z,11.63
2018-11-02T19:44:05.962Z,13.30
2018-11-02T19:46:36.367Z,10.23
2018-11-02T19:49:07.167Z,11.37
2018-11-02T19:51:37.336Z,11.53
2018-11-02T19:54:08.172Z,13.53
2018-11-02T19:56:38.357Z,10.93
2018-11-02T19:59:09.649Z,11.27
2018-11-02T20:01:40.022Z,12.27
2018-11-02T20:04:10.171Z,13.43
2018-11-02T20:06:40.459Z,11.70
2018-11-02T20:09:13.269Z,13.20
2018-11-02T20:11:44.125Z,12.57
2018-11-02T20:14:14.294Z,12.63
2018-11-02T20:16:44.560Z,12.07
2018-11-02T20:19:15.231Z,11.73
2018-11-02T20:21:45.606Z,11.20
2018-11-02T20:24:15.768Z,12.80
2018-11-02T20:26:45.958Z,12.87
2018-11-02T20:29:16.097Z,13.13
2018-11-02T20:31:46.716Z,12.10
2018-11-02T20:34:16.944Z,11.67
2018-11-02T20:36:47.185Z,12.00
2018-11-02T20:39:17.475Z,11.43
2018-11-02T20:41:47.697Z,10.33
2018-11-02T20:44:17.869Z,10.50
2018-11-02T20:46:48.085Z,13.07
2018-11-02T20:49:18.278Z,12.07
2018-11-02T20:51:48.437Z,11.73
2018-11-02T20:54:18.723Z,11.50
2018-11-02T20:56:48.938Z,10.83
2018-11-02T20:59:19.083Z,11.73
2018-11-02T21:01:49.222Z,13.20
2018-11-02T21:04:19.512Z,11.13
2018-11-02T21:06:49.817Z,10.50
2018-11-02T21:09:20.280Z,12.50
2018-11-02T21:11:50.258Z,11.00
2018-11-02T21:14:20.534Z,12.50
2018-11-02T21:16:50.644Z,11.70
2018-11-02T21:19:20.916Z,11.57
2018-11-02T21:21:51.308Z,10.90
2018-11-02T21:24:21.410Z,11.43
2018-11-02T21:26:51.613Z,11.70
2018-11-02T21:29:21.778Z,9.70
2018-11-02T21:31:51.940Z,10.63
2018-11-02T21:34:22.089Z,10.90
2018-11-02T21:36:52.203Z,10.00
2018-11-02T21:39:22.365Z,10.77
2018-11-02T21:41:52.589Z,10.03
2018-11-02T21:44:22.732Z,10.30
2018-11-02T21:46:52.866Z,10.47
2018-11-02T21:49:23.127Z,10.40
2018-11-02T21:51:53.258Z,9.97
2018-11-02T21:54:23.568Z,9.40
2018-11-02T21:56:53.965Z,9.73
2018-11-02T21:59:24.219Z,11.00
2018-11-02T22:01:54.513Z,10.10
2018-11-02T22:04:24.728Z,9.77
2018-11-02T22:06:55.167Z,10.27
2018-11-02T22:09:25.397Z,10.73
2018-11-02T22:11:55.693Z,13.33
2018-11-02T22:14:25.941Z,14.63
2018-11-02T22:16:56.272Z,11.20
2018-11-02T22:19:26.556Z,13.60
2018-11-02T22:21:56.759Z,14.70
2018-11-02T22:24:27.235Z,15.03
2018-11-02T22:26:57.511Z,15.40
2018-11-02T22:29:27.899Z,15.07
2018-11-02T22:31:58.177Z,14.57
2018-11-02T22:34:28.607Z,14.30
2018-11-02T22:36:58.820Z,14.83
2018-11-02T22:39:29.083Z,15.23
2018-11-02T22:41:59.465Z,15.70
2018-11-02T22:44:29.777Z,14.87
2018-11-02T22:46:59.991Z,16.10
2018-11-02T22:49:30.259Z,15.80
2018-11-02T22:52:00.567Z,15.13
2018-11-02T22:54:30.925Z,15.77
2018-11-02T22:57:01.417Z,16.60
2018-11-02T22:59:31.809Z,17.03
2018-11-02T23:02:02.071Z,17.80
2018-11-02T23:04:32.279Z,15.00
2018-11-02T23:07:02.695Z,16.27
2018-11-02T23:09:32.975Z,17.50
2018-11-02T23:12:03.593Z,15.87
2018-11-02T23:14:34.446Z,15.63
2018-11-02T23:17:04.670Z,16.20
2018-11-02T23:19:35.043Z,15.07
2018-11-02T23:22:05.244Z,16.23
2018-11-02T23:24:35.590Z,15.00
2018-11-02T23:27:06.046Z,15.20
2018-11-02T23:29:36.431Z,15.10
2018-11-02T23:32:06.619Z,16.80
2018-11-02T23:34:37.114Z,16.13
2018-11-02T23:37:07.324Z,16.30
2018-11-02T23:39:37.523Z,15.57
2018-11-02T23:42:08.300Z,16.87
2018-11-02T23:44:38.630Z,16.80
2018-11-02T23:47:09.702Z,19.17
2018-11-02T23:49:40.092Z,18.07
2018-11-02T23:52:10.308Z,19.97
2018-11-02T23:54:40.505Z,19.57
2018-11-02T23:57:10.657Z,20.77
2018-11-02T23:59:40.878Z,21.70
